Time;durP1;ratioP1;P1;durP2;ratioP2;P2;SDS_P1;SDS_P2;PMS_P1;PMS_P2;Temp;Humidity;BMP_temperature;BMP_pressure;BME280_temperature;BME280_humidity;BME280_pressure;Samples;Min_cycle;Max_cycle;Signal;HPM_P1;HPM_P2
2022/12/06 00:01:23;;;;;;;8.95;6.28;;;;;;;5.99;86.92;101973.13;5085435;28;20426;-87
2022/12/06 00:03:53;;;;;;;7.75;5.57;;;;;;;5.86;87.40;101960.88;5097946;28;20032;-87
2022/12/06 00:06:20;;;;;;;10.40;6.35;;;;;;;5.88;87.05;101960.03;5085510;28;20103;-87
2022/12/06 00:08:47;;;;;;;11.13;6.10;;;;;;;5.99;87.01;101975.75;5091576;28;20371;-86
2022/12/06 00:11:15;;;;;;;10.93;6.07;;;;;;;5.96;87.20;101975.75;5103178;28;20027;-87
2022/12/06 00:13:41;;;;;;;9.30;5.90;;;;;;;5.95;86.95;101978.41;5091665;28;20054;-86
2022/12/06 00:16:10;;;;;;;11.30;6.03;;;;;;;5.93;87.02;101970.53;5098051;28;20442;-87
2022/12/06 00:18:37;;;;;;;8.90;6.40;;;;;;;5.85;86.82;101946.03;5081019;28;20407;-87
2022/12/06 00:21:14;;;;;;;11.75;7.47;;;;;;;5.89;87.26;101960.91;5094193;28;20053;-87
2022/12/06 00:23:45;;;;;;;9.82;6.43;;;;;;;5.93;87.12;101965.28;5078726;28;20028;-86
2022/12/06 00:26:11;;;;;;;12.93;5.82;;;;;;;5.97;86.74;101969.66;5078369;28;20032;-86
2022/12/06 00:28:37;;;;;;;10.45;6.65;;;;;;;5.86;87.14;101953.88;5096986;28;20051;-87
2022/12/06 00:31:05;;;;;;;10.63;5.88;;;;;;;6.05;87.24;101972.25;5085300;28;20463;-87
2022/12/06 00:33:33;;;;;;;10.13;6.50;;;;;;;6.02;87.13;101962.63;5074845;28;20050;-87
2022/12/06 00:36:03;;;;;;;13.70;6.68;;;;;;;5.94;87.12;101960.91;5097426;28;20054;-86
2022/12/06 00:38:29;;;;;;;8.27;5.38;;;;;;;5.96;87.10;101960.00;5094803;28;20396;-87
2022/12/06 00:40:59;;;;;;;12.50;7.07;;;;;;;5.97;87.09;101971.38;5080986;28;20023;-87
2022/12/06 00:43:24;;;;;;;9.35;5.97;;;;;;;5.93;87.06;101960.03;5086289;28;20398;-87
2022/12/06 00:45:49;;;;;;;12.75;6.82;;;;;;;5.99;87.18;101952.16;5096472;28;20028;-87
2022/12/06 00:48:15;;;;;;;10.23;5.97;;;;;;;5.97;86.63;101948.66;5107363;28;20576;-87
2022/12/06 00:50:40;;;;;;;12.32;6.65;;;;;;;6.02;86.38;101965.28;5092089;28;20046;-87
2022/12/06 00:53:05;;;;;;;11.15;5.63;;;;;;;6.00;86.77;101972.25;5085973;28;20522;-87
2022/12/06 00:55:31;;;;;;;11.10;7.13;;;;;;;5.94;87.18;101961.78;5074642;28;20032;-87
2022/12/06 00:57:56;;;;;;;11.80;6.95;;;;;;;6.02;86.79;101967.91;5097967;28;20472;-87
2022/12/06 01:00:21;;;;;;;8.93;6.35;;;;;;;6.00;87.05;101966.13;5084895;28;20020;-87
2022/12/06 01:02:46;;;;;;;11.48;6.18;;;;;;;5.97;86.71;101959.16;5107106;28;20024;-87
2022/12/06 01:05:12;;;;;;;10.45;6.75;;;;;;;6.05;86.76;101972.25;5082999;28;20391;-87
2022/12/06 01:07:37;;;;;;;11.70;6.85;;;;;;;5.96;86.71;101959.16;5100850;28;20030;-87
2022/12/06 01:10:03;;;;;;;10.80;6.72;;;;;;;5.93;86.87;101952.16;5097852;28;20477;-87
2022/12/06 01:12:28;;;;;;;13.43;7.05;;;;;;;5.98;87.02;101966.16;5108983;28;20039;-87
2022/12/06 01:14:53;;;;;;;11.25;7.45;;;;;;;5.97;86.98;101961.78;5101574;28;20020;-87
2022/12/06 01:17:18;;;;;;;10.85;7.18;;;;;;;6.04;86.60;101970.50;5083734;28;20080;-87
2022/12/06 01:19:44;;;;;;;11.65;8.30;;;;;;;6.00;86.61;101959.13;5099655;28;20023;-87
2022/12/06 01:22:09;;;;;;;10.10;7.53;;;;;;;6.05;86.48;101967.88;5094545;28;20498;-87
2022/12/06 01:24:34;;;;;;;14.07;7.45;;;;;;;5.97;86.62;101955.63;5097195;28;20063;-87
2022/12/06 01:26:59;;;;;;;13.18;7.57;;;;;;;6.03;87.11;101966.13;5075657;28;20028;-87
2022/12/06 01:29:25;;;;;;;15.65;8.85;;;;;;;5.93;87.17;101951.31;5079254;28;20423;-87
2022/12/06 01:31:50;;;;;;;14.82;7.88;;;;;;;5.96;86.80;101962.63;5106701;28;20062;-87
2022/12/06 01:34:16;;;;;;;18.88;8.43;;;;;;;5.98;86.99;101966.16;5100984;28;20103;-87
2022/12/06 01:36:42;;;;;;;14.85;8.00;;;;;;;6.03;87.29;101974.00;5082538;28;20039;-87
2022/12/06 01:39:09;;;;;;;14.30;7.65;;;;;;;5.98;87.35;101971.41;5100366;28;20032;-88
2022/12/06 01:41:36;;;;;;;14.68;8.32;;;;;;;5.99;87.29;101975.75;5103879;28;20118;-87
2022/12/06 01:44:02;;;;;;;13.27;8.02;;;;;;;5.92;87.35;101970.53;5083657;28;20034;-86
2022/12/06 01:46:37;;;;;;;11.63;6.43;;;;;;;6.13;87.20;101973.97;5098709;28;20032;-87
2022/12/06 01:49:07;;;;;;;13.15;5.63;;;;;;;6.03;87.26;101974.88;5085158;28;20040;-87
2022/12/06 01:51:33;;;;;;;9.30;5.75;;;;;;;5.97;87.23;101959.16;5073338;28;20031;-87
2022/12/06 01:54:02;;;;;;;10.10;5.53;;;;;;;5.87;87.73;101955.66;5083014;28;20105;-87
2022/12/06 01:56:27;;;;;;;8.52;5.68;;;;;;;5.84;87.90;101957.41;5105054;28;20027;-87
2022/12/06 01:58:55;;;;;;;9.00;5.78;;;;;;;5.92;87.88;101963.53;5106587;28;20024;-87
2022/12/06 02:01:21;;;;;;;8.68;5.68;;;;;;;5.88;88.05;101952.16;5089210;28;20036;-87
2022/12/06 02:03:47;;;;;;;9.80;6.13;;;;;;;6.05;87.21;101965.22;5083527;28;20581;-87
2022/12/06 02:06:14;;;;;;;11.95;5.75;;;;;;;6.02;87.45;101953.91;5094855;28;20103;-87
2022/12/06 02:08:40;;;;;;;11.63;5.95;;;;;;;6.00;87.38;101960.88;5093072;28;20043;-87
2022/12/06 02:11:07;;;;;;;8.95;5.80;;;;;;;5.96;87.23;101948.66;5100262;28;20031;-87
2022/12/06 02:13:34;;;;;;;11.57;6.57;;;;;;;5.92;87.33;101946.91;5073063;28;20063;-87
2022/12/06 02:16:25;;;;;;;8.93;6.45;;;;;;;6.04;87.51;101965.25;5101064;28;20019;-87
2022/12/06 02:19:01;;;;;;;11.18;6.28;;;;;;;6.05;86.79;101957.34;5090618;28;20104;-87
2022/12/06 02:21:57;;;;;;;8.35;5.57;;;;;;;6.00;87.03;101958.25;5095995;28;20023;-87
2022/12/06 02:24:38;;;;;;;10.93;6.82;;;;;;;6.02;87.25;101969.66;5094247;28;20487;-87
2022/12/06 02:27:31;;;;;;;9.68;6.32;;;;;;;6.05;87.27;101967.00;5076163;28;20019;-87
2022/12/06 02:30:07;;;;;;;11.55;5.55;;;;;;;6.01;87.05;101963.50;5102171;28;20410;-87
2022/12/06 02:32:56;;;;;;;10.43;6.20;;;;;;;6.04;87.19;101960.88;5078847;28;20118;-87
2022/12/06 02:35:33;;;;;;;8.10;5.13;;;;;;;5.95;87.34;101954.78;5099089;28;20040;-87
2022/12/06 02:38:28;;;;;;;11.45;5.85;;;;;;;6.03;87.21;101963.50;5098199;28;20114;-87
2022/12/06 02:41:01;;;;;;;8.10;5.10;;;;;;;5.98;87.30;101955.66;5095662;28;20032;-87
2022/12/06 02:43:39;;;;;;;9.27;5.15;;;;;;;5.90;87.08;101936.38;5096237;28;20139;-87
2022/12/06 02:46:06;;;;;;;12.38;6.32;;;;;;;5.85;87.28;101932.91;5095032;28;20099;-87
2022/12/06 02:48:33;;;;;;;11.02;6.53;;;;;;;5.97;87.22;101937.25;5096593;28;20488;-87
2022/12/06 02:51:03;;;;;;;8.18;5.00;;;;;;;5.93;87.03;101948.69;5090506;28;20032;-87
2022/12/06 02:53:33;;;;;;;10.43;5.63;;;;;;;5.98;87.00;101950.41;5103285;28;20051;-87
2022/12/06 02:55:59;;;;;;;8.80;5.35;;;;;;;6.00;86.67;101945.13;5077667;28;20118;-86
2022/12/06 02:58:25;;;;;;;9.70;5.30;;;;;;;5.92;86.62;101932.03;5076237;28;20039;-87
2022/12/06 03:01:01;;;;;;;9.35;5.40;;;;;;;5.95;86.86;101926.78;5096409;28;20111;-87
2022/12/06 03:03:45;;;;;;;9.40;5.43;;;;;;;6.01;86.59;101942.50;5074638;28;20031;-87
2022/12/06 03:06:38;;;;;;;11.10;5.78;;;;;;;6.00;86.84;101935.50;5096001;28;20036;-87
2022/12/06 03:09:32;;;;;;;10.60;5.15;;;;;;;6.04;86.71;101946.88;5100334;28;20490;-87
2022/12/06 03:12:10;;;;;;;9.88;5.50;;;;;;;5.92;86.75;101932.03;5091869;28;20036;-87
2022/12/06 03:14:49;;;;;;;10.57;5.95;;;;;;;5.99;86.93;101940.78;5094312;28;20024;-87
2022/12/06 03:17:38;;;;;;;11.63;6.95;;;;;;;6.02;86.58;101949.53;5090191;28;20023;-87
2022/12/06 03:20:18;;;;;;;12.77;5.40;;;;;;;5.88;86.77;101925.91;5090361;28;20111;-87
2022/12/06 03:22:50;;;;;;;8.52;4.90;;;;;;;6.01;86.76;101953.00;5082350;28;20084;-87
2022/12/06 03:25:16;;;;;;;12.35;5.65;;;;;;;5.94;86.65;101942.53;5080755;28;21050;-87
2022/12/06 03:27:43;;;;;;;11.90;6.20;;;;;;;5.90;86.51;101931.13;5083329;28;20027;-87
2022/12/06 03:30:11;;;;;;;9.40;4.75;;;;;;;5.89;86.63;101932.91;5104562;28;20151;-87
2022/12/06 03:32:40;;;;;;;11.02;5.50;;;;;;;5.96;86.54;101941.63;5100927;28;20074;-87
2022/12/06 03:35:10;;;;;;;12.68;5.43;;;;;;;5.95;86.81;101945.16;5100725;28;20099;-87
2022/12/06 03:37:39;;;;;;;11.18;6.07;;;;;;;6.01;86.61;101957.38;5096512;28;20050;-87
2022/12/06 03:40:15;;;;;;;10.32;5.45;;;;;;;5.92;86.80;101945.16;5100795;28;20022;-87
2022/12/06 03:42:41;;;;;;;14.90;6.15;;;;;;;5.97;86.88;101953.91;5096004;28;20019;-87
2022/12/06 03:45:09;;;;;;;10.43;5.90;;;;;;;6.00;86.67;101950.38;5076124;28;20027;-87
2022/12/06 03:47:57;;;;;;;10.48;6.55;;;;;;;6.02;86.84;101953.91;5096051;28;20028;-87
2022/12/06 03:50:31;;;;;;;11.60;6.18;;;;;;;5.99;86.63;101946.03;5079929;28;20048;-87
2022/12/06 03:52:56;;;;;;;12.68;5.95;;;;;;;5.89;86.76;101925.03;5103097;28;20070;-87
2022/12/06 03:55:21;;;;;;;15.23;6.28;;;;;;;5.98;86.58;101947.78;5099484;28;20445;-87
2022/12/06 03:57:47;;;;;;;13.57;5.43;;;;;;;6.02;86.45;101941.63;5078423;28;20122;-87
2022/12/06 04:00:13;;;;;;;15.48;6.70;;;;;;;6.03;86.57;101951.25;5080588;28;20463;-87
2022/12/06 04:02:38;;;;;;;13.48;6.22;;;;;;;5.96;86.59;101935.53;5101761;28;20028;-87
2022/12/06 04:05:04;;;;;;;9.40;5.28;;;;;;;6.01;86.47;101939.00;5106399;28;20035;-87
2022/12/06 04:07:30;;;;;;;13.13;6.45;;;;;;;5.96;86.44;101939.00;5100597;28;20039;-87
2022/12/06 04:10:01;;;;;;;11.48;6.45;;;;;;;6.03;86.69;101947.75;5107331;28;20537;-87
2022/12/06 04:13:14;;;;;;;10.75;5.93;;;;;;;6.02;86.54;101946.91;5094657;28;20032;-87
2022/12/06 04:15:14;;;;;;;14.02;6.90;;;;;;;5.97;86.58;101935.53;5082122;28;20028;-87
2022/12/06 04:20:26;;;;;;;15.95;6.20;;;;;;;6.03;86.40;101938.13;5099524;28;20050;-87
2022/12/06 04:23:04;;;;;;;10.82;6.47;;;;;;;6.02;86.52;101948.66;5083523;28;20467;-87
2022/12/06 04:25:31;;;;;;;12.10;6.53;;;;;;;5.92;86.76;101925.91;5088647;28;20074;-87
2022/12/06 04:38:52;;;;;;;9.15;5.68;;;;;;;5.94;86.94;101951.28;5105385;28;20097;-87
2022/12/06 04:44:05;;;;;;;11.98;5.57;;;;;;;5.99;87.04;101944.25;5094065;28;20104;-87
2022/12/06 04:46:30;;;;;;;12.32;6.00;;;;;;;5.98;86.57;101946.91;5100702;28;20486;-87
2022/12/06 04:48:56;;;;;;;15.55;6.68;;;;;;;5.99;86.82;101940.78;5100829;28;20332;-87
2022/12/06 04:51:21;;;;;;;16.02;5.57;;;;;;;6.00;86.55;101943.38;5097217;28;20086;-87
2022/12/06 04:53:47;;;;;;;22.10;7.40;;;;;;;6.01;86.77;101941.63;5106291;28;20532;-87
2022/12/06 04:56:12;;;;;;;17.27;6.20;;;;;;;5.93;86.74;101928.56;5085661;28;20130;-87
2022/12/06 04:58:38;;;;;;;14.25;5.85;;;;;;;5.97;86.88;101935.53;5101422;28;20027;-87
2022/12/06 05:01:03;;;;;;;15.35;5.72;;;;;;;5.92;86.71;101925.91;5097333;28;20016;-87
2022/12/06 05:03:29;;;;;;;11.20;5.72;;;;;;;5.95;86.72;101933.78;5107340;28;20020;-87
2022/12/06 05:05:54;;;;;;;11.45;5.55;;;;;;;6.01;86.75;101949.50;5079477;28;20024;-88
2022/12/06 05:08:19;;;;;;;14.90;5.10;;;;;;;5.93;86.69;101933.81;5084384;28;20023;-87
2022/12/06 05:10:48;;;;;;;11.77;5.80;;;;;;;6.02;86.43;101952.16;5097754;28;20055;-87
2022/12/06 05:13:15;;;;;;;12.23;5.45;;;;;;;6.00;86.75;101947.75;5086177;28;20023;-87
2022/12/06 05:16:01;;;;;;;11.93;5.32;;;;;;;5.99;86.65;101927.66;5078415;28;20309;-87
2022/12/06 05:18:27;;;;;;;8.68;5.07;;;;;;;5.87;86.47;101925.88;5100016;28;20091;-87
2022/12/06 05:21:04;;;;;;;15.10;5.75;;;;;;;5.94;86.43;101930.28;5100161;28;20027;-87
2022/12/06 05:23:30;;;;;;;10.48;5.72;;;;;;;5.94;86.47;101932.91;5099932;28;20027;-87
2022/12/06 05:26:05;;;;;;;9.93;6.07;;;;;;;6.02;86.17;101935.53;5104439;28;20474;-87
2022/12/06 05:28:32;;;;;;;15.02;5.72;;;;;;;5.96;86.42;101932.91;5099101;28;20157;-87
2022/12/06 05:30:57;;;;;;;11.02;4.82;;;;;;;5.95;86.34;101929.41;5106771;28;20024;-87
2022/12/06 05:33:24;;;;;;;15.75;5.10;;;;;;;5.97;86.11;101940.78;5103445;28;20038;-87
2022/12/06 05:35:49;;;;;;;15.68;5.68;;;;;;;6.00;86.25;101939.88;5103886;28;20023;-87
2022/12/06 05:38:15;;;;;;;13.70;5.15;;;;;;;5.95;86.27;101934.66;5078451;28;20055;-87
2022/12/06 05:40:41;;;;;;;9.40;5.47;;;;;;;5.97;86.38;101938.16;5102605;28;20024;-87
2022/12/06 05:43:07;;;;;;;12.70;5.40;;;;;;;5.94;86.20;101930.28;5103501;28;20039;-87
2022/12/06 05:45:32;;;;;;;8.88;4.82;;;;;;;5.91;86.40;101932.88;5078134;28;20028;-87
2022/12/06 05:47:57;;;;;;;10.80;5.10;;;;;;;5.93;85.99;101939.03;5104801;28;20051;-87
2022/12/06 05:50:23;;;;;;;9.38;5.70;;;;;;;5.95;85.96;101942.53;5081380;28;20048;-87
2022/12/06 05:52:53;;;;;;;12.77;6.10;;;;;;;5.94;85.97;101946.03;5076293;28;20032;-87
2022/12/06 05:55:18;;;;;;;13.93;5.47;;;;;;;5.88;86.00;101938.16;5081657;28;20106;-87
2022/12/06 05:57:43;;;;;;;10.82;4.70;;;;;;;5.89;86.20;101934.66;5099895;28;20146;-87
2022/12/06 06:00:09;;;;;;;16.45;5.47;;;;;;;5.87;86.08;101928.50;5108787;28;20052;-87
2022/12/06 06:02:34;;;;;;;11.07;5.82;;;;;;;5.91;86.00;101937.25;5092855;28;20028;-87
2022/12/06 06:05:00;;;;;;;12.48;5.53;;;;;;;5.88;85.94;101927.66;5091980;28;20062;-87
2022/12/06 06:07:25;;;;;;;13.35;5.25;;;;;;;5.83;86.11;101929.44;5091842;28;20258;-87
2022/12/06 06:09:50;;;;;;;14.18;4.85;;;;;;;5.85;85.71;101932.91;5083177;28;20032;-87
2022/12/06 06:12:15;;;;;;;11.38;4.47;;;;;;;6.00;85.45;101940.75;5094229;28;20068;-87
2022/12/06 06:14:41;;;;;;;14.00;4.88;;;;;;;5.81;85.77;101928.53;5105205;28;20020;-87
2022/12/06 06:17:06;;;;;;;10.70;4.40;;;;;;;5.81;85.91;101933.78;5095644;28;20071;-87
2022/12/06 06:19:31;;;;;;;9.18;4.38;;;;;;;5.83;85.79;101945.19;5100823;28;20073;-87
2022/12/06 06:21:57;;;;;;;10.02;4.65;;;;;;;5.78;85.81;101936.41;5098384;28;20035;-87
2022/12/06 06:24:22;;;;;;;12.57;5.50;;;;;;;5.87;85.72;101949.50;5095671;28;20062;-87
2022/12/06 06:26:47;;;;;;;11.60;5.50;;;;;;;5.87;85.72;101946.88;5102333;28;20031;-87
2022/12/06 06:29:13;;;;;;;12.30;5.03;;;;;;;5.81;85.96;101944.28;5104620;28;20500;-87
2022/12/06 06:31:38;;;;;;;12.68;5.78;;;;;;;5.83;85.68;101942.56;5092747;28;20039;-87
2022/12/06 06:34:03;;;;;;;13.68;4.93;;;;;;;5.77;85.53;101943.41;5084269;28;20058;-87
2022/12/06 06:36:29;;;;;;;10.30;4.32;;;;;;;5.71;85.74;101930.31;5091893;28;20038;-87
2022/12/06 06:38:54;;;;;;;11.43;6.47;;;;;;;5.73;85.67;101930.31;5087999;28;20062;-87
2022/12/06 06:41:19;;;;;;;10.32;5.38;;;;;;;5.74;85.69;101937.31;5093387;28;20019;-87
2022/12/06 06:43:44;;;;;;;11.68;6.60;;;;;;;5.65;85.60;101921.59;5093121;28;20520;-87
2022/12/06 06:46:10;;;;;;;10.23;5.55;;;;;;;5.73;85.72;101943.44;5096648;28;20052;-87
2022/12/06 06:48:37;;;;;;;9.60;5.28;;;;;;;5.63;85.78;101932.94;5094001;28;20055;-87
2022/12/06 06:51:09;;;;;;;9.68;4.65;;;;;;;5.71;85.84;101939.94;5095917;28;20475;-87
2022/12/06 06:53:35;;;;;;;11.52;5.50;;;;;;;5.58;85.70;101918.97;5100063;28;20035;-87
2022/12/06 06:56:00;;;;;;;10.60;5.05;;;;;;;5.46;85.47;101919.03;5084325;28;20031;-87
2022/12/06 06:58:25;;;;;;;12.63;4.95;;;;;;;5.53;85.43;101930.38;5080616;28;20286;-87
2022/12/06 07:00:53;;;;;;;9.15;4.68;;;;;;;5.57;85.87;101929.47;5080042;28;20024;-86
2022/12/06 07:03:19;;;;;;;8.60;4.25;;;;;;;5.55;85.75;101934.75;5078115;28;20023;-87
2022/12/06 07:05:52;;;;;;;7.38;4.50;;;;;;;5.58;85.86;101939.09;5095036;28;20024;-87
2022/12/06 07:08:17;;;;;;;10.88;4.40;;;;;;;5.54;85.93;101929.47;5092056;28;20146;-87
2022/12/06 07:10:47;;;;;;;11.82;4.60;;;;;;;5.52;85.79;101931.25;5091262;28;20598;-87
2022/12/06 07:13:20;;;;;;;9.05;4.28;;;;;;;5.45;85.77;101927.75;5100484;28;20059;-87
2022/12/06 07:15:45;;;;;;;8.02;3.88;;;;;;;5.42;85.22;101932.16;5092817;28;20030;-87
2022/12/06 07:18:10;;;;;;;11.48;4.63;;;;;;;5.34;85.60;101935.63;5075755;28;20035;-87
2022/12/06 07:20:36;;;;;;;7.80;3.50;;;;;;;5.34;85.47;101942.63;5094674;28;20047;-87
2022/12/06 07:23:01;;;;;;;9.98;4.00;;;;;;;5.31;85.87;101940.88;5096268;28;20024;-87
2022/12/06 07:25:26;;;;;;;5.85;3.90;;;;;;;5.35;86.03;101941.75;5099555;28;20024;-87
2022/12/06 07:27:52;;;;;;;8.50;3.72;;;;;;;5.35;85.79;101941.75;5096516;28;20482;-86
2022/12/06 07:30:17;;;;;;;7.10;3.97;;;;;;;5.35;85.95;101942.63;5095239;28;20386;-87
2022/12/06 07:32:43;;;;;;;8.85;3.50;;;;;;;5.35;85.90;101939.13;5075421;28;20122;-86
2022/12/06 07:35:08;;;;;;;8.75;4.00;;;;;;;5.35;85.93;101928.63;5083255;28;20107;-87
2022/12/06 07:37:34;;;;;;;8.63;3.92;;;;;;;5.36;86.09;101928.66;5080998;28;20023;-87
2022/12/06 07:39:59;;;;;;;11.40;3.67;;;;;;;5.38;85.62;101934.75;5098590;28;20089;-87
2022/12/06 07:45:11;;;;;;;8.38;3.20;;;;;;;5.47;86.07;101935.63;5096804;28;20049;-87
2022/12/06 07:47:39;;;;;;;6.88;3.55;;;;;;;5.46;85.97;101933.88;5095813;28;20011;-87
2022/12/06 07:50:06;;;;;;;9.60;4.20;;;;;;;5.50;85.95;101952.25;5078979;28;20064;-87
2022/12/06 07:52:33;;;;;;;8.30;4.28;;;;;;;5.55;85.74;101950.47;5087369;28;20441;-87
2022/12/06 07:54:58;;;;;;;11.95;4.35;;;;;;;5.48;85.99;101940.88;5080571;28;20027;-87
2022/12/06 07:57:23;;;;;;;4.75;3.63;;;;;;;5.52;85.80;101958.34;5104277;28;20043;-87
2022/12/06 07:59:49;;;;;;;11.63;3.10;;;;;;;5.52;86.07;101954.84;5093816;28;20020;-87
2022/12/06 08:02:19;;;;;;;7.75;3.65;;;;;;;5.49;85.94;101953.09;5086192;28;20487;-87
2022/12/06 08:04:45;;;;;;;5.13;3.45;;;;;;;5.48;85.56;101948.72;5104845;28;20039;-87
2022/12/06 08:07:10;;;;;;;7.75;3.30;;;;;;;5.59;85.98;101967.94;5098945;28;20020;-87
2022/12/06 08:09:36;;;;;;;9.45;4.28;;;;;;;5.58;85.67;101965.31;5080216;28;20145;-86
2022/12/06 08:12:01;;;;;;;10.23;5.40;;;;;;;5.60;85.49;101956.59;5077694;28;20047;-87
2022/12/06 08:14:26;;;;;;;10.18;3.63;;;;;;;5.66;85.66;101962.69;5080541;28;20486;-87
2022/12/06 08:16:52;;;;;;;6.13;3.20;;;;;;;5.77;85.05;101955.66;5078696;28;20019;-87
2022/12/06 08:19:17;;;;;;;5.95;3.45;;;;;;;5.81;85.30;101962.66;5078720;28;20445;-87
2022/12/06 08:21:42;;;;;;;7.53;3.38;;;;;;;5.73;84.73;101949.53;5078898;28;20016;-87
2022/12/06 08:24:08;;;;;;;5.97;3.30;;;;;;;5.81;84.79;101965.28;5088656;28;20495;-87
2022/12/06 08:26:34;;;;;;;4.10;2.75;;;;;;;5.84;84.65;101966.16;5079193;28;20465;-87
2022/12/06 08:29:00;;;;;;;6.43;3.05;;;;;;;5.86;84.48;101963.50;5083148;28;20394;-87
2022/12/06 08:31:25;;;;;;;9.60;3.03;;;;;;;5.81;84.76;101957.41;5097764;28;20038;-87
2022/12/06 08:33:51;;;;;;;5.82;2.85;;;;;;;5.85;85.14;101961.78;5100143;28;20462;-87
2022/12/06 08:36:19;;;;;;;7.55;3.00;;;;;;;5.84;85.07;101949.53;5104722;28;20356;-87
2022/12/06 08:38:46;;;;;;;5.68;3.10;;;;;;;5.97;85.05;101966.13;5100281;28;20059;-87
2022/12/06 08:43:57;;;;;;;5.65;2.67;;;;;;;5.98;84.19;101974.03;5101407;28;20514;-87
2022/12/06 08:46:24;;;;;;;5.20;3.00;;;;;;;5.84;84.38;101954.78;5078755;28;20030;-88
2022/12/06 08:48:50;;;;;;;6.28;3.25;;;;;;;5.74;84.14;101953.94;5107103;28;20552;-86
2022/12/06 08:51:15;;;;;;;6.05;3.22;;;;;;;5.75;84.32;101957.44;5100252;28;20485;-86
2022/12/06 08:53:40;;;;;;;6.65;3.83;;;;;;;5.87;84.21;101976.66;5082567;28;20028;-87
2022/12/06 08:56:06;;;;;;;6.35;3.42;;;;;;;5.91;83.73;101976.63;5099847;28;20032;-87
2022/12/06 08:58:31;;;;;;;9.75;4.50;;;;;;;5.92;83.88;101981.91;5077449;28;20479;-87
2022/12/06 09:00:57;;;;;;;6.72;3.72;;;;;;;5.91;83.43;101972.25;5078970;28;20024;-87
2022/12/06 09:03:22;;;;;;;7.53;4.13;;;;;;;5.89;83.65;101979.25;5094903;28;20122;-87
2022/12/06 09:05:47;;;;;;;9.73;4.00;;;;;;;5.92;83.60;101974.03;5082769;28;20035;-87
2022/12/06 09:08:13;;;;;;;7.75;4.25;;;;;;;6.04;83.32;101974.00;5094328;28;20081;-87
2022/12/06 09:10:38;;;;;;;7.38;4.18;;;;;;;6.33;82.28;101975.63;5088012;28;20055;-87
2022/12/06 09:13:04;;;;;;;7.40;4.18;;;;;;;6.26;82.00;101972.19;5103059;28;20562;-87
2022/12/06 09:15:29;;;;;;;8.68;3.90;;;;;;;6.39;81.66;101983.50;5085818;28;20058;-87
2022/12/06 09:17:54;;;;;;;6.75;4.53;;;;;;;6.55;81.67;101981.66;5075957;28;20118;-86
2022/12/06 09:20:20;;;;;;;7.10;4.05;;;;;;;6.71;80.78;101985.06;5101398;28;20103;-87
2022/12/06 09:22:45;;;;;;;7.80;4.65;;;;;;;6.59;80.39;101991.28;5079400;28;20051;-87
2022/12/06 09:25:10;;;;;;;8.23;4.50;;;;;;;6.48;80.81;101987.81;5098462;28;20110;-87
2022/12/06 09:27:37;;;;;;;8.10;4.60;;;;;;;6.64;81.20;101998.25;5098924;28;20077;-86
2022/12/06 09:30:03;;;;;;;9.93;5.35;;;;;;;8.27;78.52;101992.44;5106006;28;20487;-87
2022/12/06 09:32:28;;;;;;;11.00;4.85;;;;;;;10.50;70.70;101987.91;5085324;28;20045;-87
2022/12/06 09:34:54;;;;;;;6.28;4.28;;;;;;;12.39;64.94;101979.56;5099320;28;20034;-87
2022/12/06 09:37:19;;;;;;;5.38;3.90;;;;;;;13.84;60.48;101979.31;5099650;28;20043;-87
2022/12/06 09:39:49;;;;;;;7.65;3.53;;;;;;;15.15;56.88;101986.72;5092775;28;20472;-87
2022/12/06 09:42:57;;;;;;;8.48;4.55;;;;;;;16.56;59.43;101988.59;5098016;28;20097;-87
2022/12/06 09:45:51;;;;;;;9.68;5.68;;;;;;;17.85;55.63;101999.16;5105055;28;20027;-87
2022/12/06 09:48:37;;;;;;;11.80;6.93;;;;;;;18.84;54.07;101996.47;5075267;28;20118;-88
2022/12/06 09:51:24;;;;;;;12.30;5.28;;;;;;;19.32;45.02;101985.69;5077892;28;20028;-87
2022/12/06 09:54:01;;;;;;;6.70;4.47;;;;;;;19.47;49.64;101994.66;5097253;28;20027;-87
2022/12/06 09:56:38;;;;;;;4.15;3.33;;;;;;;20.04;46.27;101986.75;5077117;28;20047;-89
2022/12/06 09:59:41;;;;;;;5.35;3.50;;;;;;;20.31;48.17;101984.19;5077781;28;20020;-91
2022/12/06 10:02:22;;;;;;;3.95;3.05;;;;;;;19.76;45.95;101991.13;5094982;28;20517;-87
2022/12/06 10:05:09;;;;;;;3.17;2.77;;;;;;;20.56;46.12;101991.56;5094170;28;21588;-87
2022/12/06 10:08:02;;;;;;;4.90;2.50;;;;;;;21.65;45.07;101978.06;5079307;28;20282;-86
2022/12/06 10:10:35;;;;;;;4.88;2.00;;;;;;;21.79;38.63;101982.47;5076968;28;20418;-87
2022/12/06 10:13:15;;;;;;;4.45;2.15;;;;;;;22.42;40.78;101962.75;5094096;28;20031;-87
2022/12/06 10:16:01;;;;;;;3.78;2.40;;;;;;;22.98;35.68;101967.66;5095680;28;20028;-87
2022/12/06 10:18:48;;;;;;;2.58;2.38;;;;;;;23.48;36.80;101964.81;5071618;28;20028;-88
2022/12/06 10:21:42;;;;;;;3.10;2.40;;;;;;;23.68;35.97;101962.31;5086827;28;20073;-88
2022/12/06 10:24:21;;;;;;;2.17;1.98;;;;;;;24.08;33.14;101967.31;5076983;28;20056;-88
2022/12/06 10:26:51;;;;;;;3.08;2.20;;;;;;;24.05;33.67;101967.53;5107833;28;20092;-89
2022/12/06 10:29:21;;;;;;;2.47;1.80;;;;;;;23.90;32.64;101961.50;5103666;28;20073;-89
2022/12/06 10:32:17;;;;;;;4.10;2.15;;;;;;;23.50;37.84;101965.56;5096479;28;20031;-88
2022/12/06 10:34:57;;;;;;;4.85;2.00;;;;;;;23.46;35.64;101964.97;5074588;28;20567;-88
2022/12/06 10:37:36;;;;;;;5.50;2.13;;;;;;;23.35;34.48;101971.16;5079285;28;20031;-89
2022/12/06 10:40:46;;;;;;;4.55;2.15;;;;;;;22.88;37.50;101963.91;5095307;28;20074;-89
2022/12/06 10:43:22;;;;;;;4.20;2.20;;;;;;;22.15;35.00;101962.91;5088640;28;20027;-89
2022/12/06 10:49:01;;;;;;;5.22;2.30;;;;;;;23.53;31.76;101960.78;5097678;28;20050;-94
2022/12/06 10:51:54;;;;;;;4.82;2.42;;;;;;;22.26;37.25;101967.53;5075525;28;20067;-84
2022/12/06 10:54:31;;;;;;;2.88;1.92;;;;;;;21.98;35.65;101968.59;5093466;28;20530;-83
2022/12/06 10:57:03;;;;;;;3.10;2.17;;;;;;;22.26;33.41;101967.53;5070879;28;20028;-82
2022/12/06 10:59:31;;;;;;;5.80;2.10;;;;;;;22.39;32.56;101968.38;5098479;28;20248;-82
2022/12/06 11:02:03;;;;;;;3.15;2.10;;;;;;;23.14;32.12;101960.16;5097278;28;20032;-82
2022/12/06 11:04:35;;;;;;;4.75;2.00;;;;;;;23.79;32.04;101950.72;5092962;28;20115;-88
2022/12/06 11:07:10;;;;;;;3.63;1.90;;;;;;;24.46;30.66;101943.63;5105958;28;20065;-87
2022/12/06 11:09:45;;;;;;;6.18;2.25;;;;;;;25.29;30.17;101952.00;5108537;28;20024;-88
2022/12/06 11:12:26;;;;;;;3.47;1.98;;;;;;;25.61;32.16;101948.41;5109291;28;20042;-88
2022/12/06 11:14:57;;;;;;;2.90;1.83;;;;;;;25.78;28.55;101955.06;5096818;28;20036;-87
2022/12/06 11:17:28;;;;;;;3.75;1.92;;;;;;;25.82;26.21;101961.94;5083701;28;20028;-88
2022/12/06 11:19:58;;;;;;;4.18;2.08;;;;;;;25.94;26.77;101967.16;5081064;28;20031;-87
2022/12/06 11:22:44;;;;;;;2.75;2.00;;;;;;;25.97;30.39;101960.59;5098853;28;20489;-87
2022/12/06 11:25:38;;;;;;;3.72;2.08;;;;;;;26.52;30.52;101954.88;5108337;28;20085;-86
2022/12/06 11:28:35;;;;;;;2.17;1.40;;;;;;;26.48;29.81;101959.72;5108096;28;20103;-85
2022/12/06 11:31:11;;;;;;;3.42;1.67;;;;;;;26.47;25.74;101946.28;5096710;28;20039;-86
2022/12/06 11:33:36;;;;;;;16.92;2.83;;;;;;;26.53;25.73;101946.59;5091287;28;20031;-88
2022/12/06 11:36:05;;;;;;;3.20;1.58;;;;;;;26.57;25.43;101950.75;5076789;28;20126;-88
2022/12/06 11:38:32;;;;;;;3.65;1.80;;;;;;;26.90;25.57;101945.94;5098056;28;20031;-89
2022/12/06 11:40:58;;;;;;;3.58;1.88;;;;;;;25.25;25.73;101938.88;5100162;28;20462;-87
2022/12/06 11:43:28;;;;;;;2.80;1.80;;;;;;;23.31;29.15;101936.41;5096852;28;20016;-87
2022/12/06 11:45:55;;;;;;;3.60;1.95;;;;;;;22.42;31.08;101940.31;5081732;28;20384;-87
2022/12/06 11:48:23;;;;;;;2.45;2.05;;;;;;;21.04;32.95;101935.59;5106578;28;22744;-87
2022/12/06 11:50:50;;;;;;;10.95;2.50;;;;;;;20.51;33.67;101939.94;5081288;28;20085;-87
2022/12/06 11:53:43;;;;;;;2.55;1.85;;;;;;;21.10;34.09;101927.09;5105707;28;20106;-87
2022/12/06 11:56:19;;;;;;;5.25;2.35;;;;;;;22.44;31.36;101932.16;5086584;28;20666;-87
2022/12/06 11:58:51;;;;;;;3.42;1.90;;;;;;;22.92;30.90;101911.50;5088613;28;20020;-88
2022/12/06 12:01:16;;;;;;;4.43;2.20;;;;;;;22.58;29.25;101907.75;5099390;28;20498;-87
2022/12/06 12:03:44;;;;;;;4.32;2.38;;;;;;;22.03;30.80;101919.78;5092562;28;20031;-88
2022/12/06 12:06:25;;;;;;;2.58;1.95;;;;;;;22.31;32.02;101922.25;5078409;28;20054;-87